sensor_id;sensor_type;location;lat;lon;timestamp;P1;durP1;ratioP1;P2;durP2;ratioP2
20290;SDS011;10304;51.074;13.754;2024-02-14T00:00:19;7.80;;;4.43;;
20290;SDS011;10304;51.074;13.754;2024-02-14T00:02:47;5.97;;;3.83;;
20290;SDS011;10304;51.074;13.754;2024-02-14T00:05:16;6.20;;;3.80;;
20290;SDS011;10304;51.074;13.754;2024-02-14T00:07:43;5.97;;;4.00;;
20290;SDS011;10304;51.074;13.754;2024-02-14T00:10:10;5.13;;;3.42;;
20290;SDS011;10304;51.074;13.754;2024-02-14T00:12:37;6.18;;;3.95;;
20290;SDS011;10304;51.074;13.754;2024-02-14T00:15:04;6.75;;;4.28;;
20290;SDS011;10304;51.074;13.754;2024-02-14T00:17:33;7.40;;;4.20;;
20290;SDS011;10304;51.074;13.754;2024-02-14T00:20:01;8.07;;;4.45;;
20290;SDS011;10304;51.074;13.754;2024-02-14T00:22:30;7.75;;;4.50;;
20290;SDS011;10304;51.074;13.754;2024-02-14T00:24:57;5.32;;;4.05;;
20290;SDS011;10304;51.074;13.754;2024-02-14T00:27:24;7.82;;;4.50;;
20290;SDS011;10304;51.074;13.754;2024-02-14T00:29:52;5.43;;;3.80;;
20290;SDS011;10304;51.074;13.754;2024-02-14T00:32:20;7.35;;;4.32;;
20290;SDS011;10304;51.074;13.754;2024-02-14T00:34:47;9.02;;;4.50;;
20290;SDS011;10304;51.074;13.754;2024-02-14T00:37:16;8.75;;;4.70;;
20290;SDS011;10304;51.074;13.754;2024-02-14T00:39:43;6.47;;;4.15;;
20290;SDS011;10304;51.074;13.754;2024-02-14T00:42:10;6.53;;;4.60;;
20290;SDS011;10304;51.074;13.754;2024-02-14T00:44:37;6.68;;;4.88;;
20290;SDS011;10304;51.074;13.754;2024-02-14T00:47:03;7.28;;;4.68;;
20290;SDS011;10304;51.074;13.754;2024-02-14T00:49:33;7.72;;;4.57;;
20290;SDS011;10304;51.074;13.754;2024-02-14T00:52:01;6.43;;;4.35;;
20290;SDS011;10304;51.074;13.754;2024-02-14T00:54:29;7.18;;;4.47;;
20290;SDS011;10304;51.074;13.754;2024-02-14T00:56:58;5.80;;;5.00;;
20290;SDS011;10304;51.074;13.754;2024-02-14T00:59:28;7.07;;;4.70;;
20290;SDS011;10304;51.074;13.754;2024-02-14T01:01:59;7.40;;;5.15;;
20290;SDS011;10304;51.074;13.754;2024-02-14T01:04:26;6.63;;;4.38;;
20290;SDS011;10304;51.074;13.754;2024-02-14T01:06:53;7.88;;;4.63;;
20290;SDS011;10304;51.074;13.754;2024-02-14T01:09:23;8.80;;;4.30;;
20290;SDS011;10304;51.074;13.754;2024-02-14T01:11:52;6.75;;;4.15;;
20290;SDS011;10304;51.074;13.754;2024-02-14T01:14:21;6.47;;;4.20;;
20290;SDS011;10304;51.074;13.754;2024-02-14T01:16:56;8.65;;;4.32;;
20290;SDS011;10304;51.074;13.754;2024-02-14T01:19:27;8.43;;;4.50;;
20290;SDS011;10304;51.074;13.754;2024-02-14T01:22:00;7.47;;;4.70;;
20290;SDS011;10304;51.074;13.754;2024-02-14T01:24:29;6.50;;;4.72;;
20290;SDS011;10304;51.074;13.754;2024-02-14T01:27:00;8.55;;;4.78;;
20290;SDS011;10304;51.074;13.754;2024-02-14T01:29:28;5.07;;;3.50;;
20290;SDS011;10304;51.074;13.754;2024-02-14T01:31:57;6.38;;;3.85;;
20290;SDS011;10304;51.074;13.754;2024-02-14T01:34:24;6.00;;;4.00;;
20290;SDS011;10304;51.074;13.754;2024-02-14T01:36:51;5.95;;;4.20;;
20290;SDS011;10304;51.074;13.754;2024-02-14T01:39:18;6.82;;;4.07;;
20290;SDS011;10304;51.074;13.754;2024-02-14T01:41:46;4.97;;;3.60;;
20290;SDS011;10304;51.074;13.754;2024-02-14T01:44:15;5.78;;;3.88;;
20290;SDS011;10304;51.074;13.754;2024-02-14T01:46:56;6.32;;;4.30;;
20290;SDS011;10304;51.074;13.754;2024-02-14T01:49:23;4.00;;;3.20;;
20290;SDS011;10304;51.074;13.754;2024-02-14T01:51:55;5.85;;;3.42;;
20290;SDS011;10304;51.074;13.754;2024-02-14T01:54:25;5.80;;;3.55;;
20290;SDS011;10304;51.074;13.754;2024-02-14T01:57:01;5.03;;;3.25;;
20290;SDS011;10304;51.074;13.754;2024-02-14T02:00:19;5.35;;;3.30;;
20290;SDS011;10304;51.074;13.754;2024-02-14T02:02:49;7.22;;;3.80;;
20290;SDS011;10304;51.074;13.754;2024-02-14T02:05:32;6.28;;;3.75;;
20290;SDS011;10304;51.074;13.754;2024-02-14T02:08:01;6.78;;;3.53;;
20290;SDS011;10304;51.074;13.754;2024-02-14T02:10:31;7.43;;;3.38;;
20290;SDS011;10304;51.074;13.754;2024-02-14T02:13:00;5.63;;;3.28;;
20290;SDS011;10304;51.074;13.754;2024-02-14T02:15:34;4.80;;;3.42;;
20290;SDS011;10304;51.074;13.754;2024-02-14T02:18:33;7.72;;;3.08;;
20290;SDS011;10304;51.074;13.754;2024-02-14T02:21:02;4.65;;;3.20;;
20290;SDS011;10304;51.074;13.754;2024-02-14T02:23:34;5.47;;;3.90;;
20290;SDS011;10304;51.074;13.754;2024-02-14T02:26:02;6.00;;;3.70;;
20290;SDS011;10304;51.074;13.754;2024-02-14T02:28:32;6.10;;;3.58;;
20290;SDS011;10304;51.074;13.754;2024-02-14T02:31:00;4.97;;;3.10;;
20290;SDS011;10304;51.074;13.754;2024-02-14T02:33:32;4.47;;;3.20;;
20290;SDS011;10304;51.074;13.754;2024-02-14T02:36:03;4.57;;;3.10;;
20290;SDS011;10304;51.074;13.754;2024-02-14T02:38:43;4.72;;;3.40;;
20290;SDS011;10304;51.074;13.754;2024-02-14T02:41:19;5.28;;;3.50;;
20290;SDS011;10304;51.074;13.754;2024-02-14T02:43:52;5.30;;;3.53;;
20290;SDS011;10304;51.074;13.754;2024-02-14T02:46:23;6.25;;;3.28;;
20290;SDS011;10304;51.074;13.754;2024-02-14T02:48:55;5.13;;;3.22;;
20290;SDS011;10304;51.074;13.754;2024-02-14T02:51:26;5.63;;;3.05;;
20290;SDS011;10304;51.074;13.754;2024-02-14T02:53:57;5.70;;;3.55;;
20290;SDS011;10304;51.074;13.754;2024-02-14T02:56:33;5.45;;;3.30;;
20290;SDS011;10304;51.074;13.754;2024-02-14T02:59:29;3.72;;;3.00;;
20290;SDS011;10304;51.074;13.754;2024-02-14T03:02:08;5.72;;;3.00;;
20290;SDS011;10304;51.074;13.754;2024-02-14T03:04:42;6.57;;;3.60;;
20290;SDS011;10304;51.074;13.754;2024-02-14T03:07:19;4.47;;;3.33;;
20290;SDS011;10304;51.074;13.754;2024-02-14T03:09:49;4.93;;;3.45;;
20290;SDS011;10304;51.074;13.754;2024-02-14T03:12:28;6.72;;;3.53;;
20290;SDS011;10304;51.074;13.754;2024-02-14T03:15:03;6.35;;;3.10;;
20290;SDS011;10304;51.074;13.754;2024-02-14T03:17:40;4.65;;;3.10;;
20290;SDS011;10304;51.074;13.754;2024-02-14T03:20:12;5.05;;;3.33;;
20290;SDS011;10304;51.074;13.754;2024-02-14T03:22:44;4.70;;;3.08;;
20290;SDS011;10304;51.074;13.754;2024-02-14T03:25:18;4.97;;;3.03;;
20290;SDS011;10304;51.074;13.754;2024-02-14T03:27:52;6.05;;;3.13;;
20290;SDS011;10304;51.074;13.754;2024-02-14T03:30:23;4.80;;;3.10;;
20290;SDS011;10304;51.074;13.754;2024-02-14T03:32:55;5.22;;;2.97;;
20290;SDS011;10304;51.074;13.754;2024-02-14T03:35:25;5.32;;;3.13;;
20290;SDS011;10304;51.074;13.754;2024-02-14T03:37:54;3.97;;;3.03;;
20290;SDS011;10304;51.074;13.754;2024-02-14T03:40:23;4.75;;;3.33;;
20290;SDS011;10304;51.074;13.754;2024-02-14T03:42:58;6.43;;;2.90;;
20290;SDS011;10304;51.074;13.754;2024-02-14T03:45:40;5.10;;;2.90;;
20290;SDS011;10304;51.074;13.754;2024-02-14T03:48:17;6.20;;;3.28;;
20290;SDS011;10304;51.074;13.754;2024-02-14T03:51:02;4.47;;;2.83;;
20290;SDS011;10304;51.074;13.754;2024-02-14T03:53:43;6.28;;;3.30;;
20290;SDS011;10304;51.074;13.754;2024-02-14T03:56:18;5.47;;;3.67;;
20290;SDS011;10304;51.074;13.754;2024-02-14T03:58:50;5.78;;;2.85;;
20290;SDS011;10304;51.074;13.754;2024-02-14T04:01:39;5.60;;;3.08;;
20290;SDS011;10304;51.074;13.754;2024-02-14T04:04:42;8.98;;;5.10;;
20290;SDS011;10304;51.074;13.754;2024-02-14T04:07:11;6.75;;;4.10;;
20290;SDS011;10304;51.074;13.754;2024-02-14T04:09:53;5.90;;;3.45;;
20290;SDS011;10304;51.074;13.754;2024-02-14T04:12:26;8.00;;;4.82;;
20290;SDS011;10304;51.074;13.754;2024-02-14T04:15:05;4.90;;;3.40;;
20290;SDS011;10304;51.074;13.754;2024-02-14T04:17:51;6.93;;;3.10;;
20290;SDS011;10304;51.074;13.754;2024-02-14T04:20:36;8.07;;;3.47;;
20290;SDS011;10304;51.074;13.754;2024-02-14T04:23:06;5.15;;;3.17;;
20290;SDS011;10304;51.074;13.754;2024-02-14T04:25:39;5.07;;;3.10;;
20290;SDS011;10304;51.074;13.754;2024-02-14T04:28:08;5.55;;;3.42;;
20290;SDS011;10304;51.074;13.754;2024-02-14T04:30:44;6.13;;;3.20;;
20290;SDS011;10304;51.074;13.754;2024-02-14T04:33:12;6.20;;;3.33;;
20290;SDS011;10304;51.074;13.754;2024-02-14T04:35:43;5.85;;;2.97;;
20290;SDS011;10304;51.074;13.754;2024-02-14T04:38:16;4.70;;;2.90;;
20290;SDS011;10304;51.074;13.754;2024-02-14T04:40:52;5.05;;;3.00;;
20290;SDS011;10304;51.074;13.754;2024-02-14T04:43:26;4.55;;;2.97;;
20290;SDS011;10304;51.074;13.754;2024-02-14T04:46:07;5.53;;;2.67;;
20290;SDS011;10304;51.074;13.754;2024-02-14T04:48:50;5.85;;;3.30;;
20290;SDS011;10304;51.074;13.754;2024-02-14T04:51:21;8.88;;;5.50;;
20290;SDS011;10304;51.074;13.754;2024-02-14T04:54:13;6.10;;;3.72;;
20290;SDS011;10304;51.074;13.754;2024-02-14T04:56:51;5.03;;;3.05;;
20290;SDS011;10304;51.074;13.754;2024-02-14T04:59:40;4.93;;;3.10;;
20290;SDS011;10304;51.074;13.754;2024-02-14T05:02:10;8.80;;;3.40;;
20290;SDS011;10304;51.074;13.754;2024-02-14T05:04:45;5.30;;;3.33;;
20290;SDS011;10304;51.074;13.754;2024-02-14T05:07:15;6.32;;;3.50;;
20290;SDS011;10304;51.074;13.754;2024-02-14T05:10:12;5.10;;;3.35;;
20290;SDS011;10304;51.074;13.754;2024-02-14T05:12:54;6.13;;;3.20;;
20290;SDS011;10304;51.074;13.754;2024-02-14T05:15:34;8.32;;;4.18;;
20290;SDS011;10304;51.074;13.754;2024-02-14T05:18:06;7.55;;;4.18;;
20290;SDS011;10304;51.074;13.754;2024-02-14T05:20:35;6.25;;;4.30;;
20290;SDS011;10304;51.074;13.754;2024-02-14T05:23:22;6.80;;;3.75;;
20290;SDS011;10304;51.074;13.754;2024-02-14T05:26:04;7.07;;;3.90;;
20290;SDS011;10304;51.074;13.754;2024-02-14T05:32:11;5.95;;;4.03;;
20290;SDS011;10304;51.074;13.754;2024-02-14T05:34:59;6.00;;;3.55;;
20290;SDS011;10304;51.074;13.754;2024-02-14T05:37:30;5.57;;;3.40;;
20290;SDS011;10304;51.074;13.754;2024-02-14T05:40:05;7.32;;;3.60;;
20290;SDS011;10304;51.074;13.754;2024-02-14T05:42:39;7.78;;;3.90;;
20290;SDS011;10304;51.074;13.754;2024-02-14T05:45:13;5.43;;;3.25;;
20290;SDS011;10304;51.074;13.754;2024-02-14T05:47:50;7.13;;;3.65;;
20290;SDS011;10304;51.074;13.754;2024-02-14T05:50:24;6.95;;;3.60;;
20290;SDS011;10304;51.074;13.754;2024-02-14T05:53:03;6.47;;;3.53;;
20290;SDS011;10304;51.074;13.754;2024-02-14T05:55:33;7.43;;;3.65;;
20290;SDS011;10304;51.074;13.754;2024-02-14T05:58:02;4.68;;;3.38;;
20290;SDS011;10304;51.074;13.754;2024-02-14T06:00:42;5.93;;;3.22;;
20290;SDS011;10304;51.074;13.754;2024-02-14T06:03:15;6.68;;;3.42;;
20290;SDS011;10304;51.074;13.754;2024-02-14T06:05:48;8.30;;;4.25;;
20290;SDS011;10304;51.074;13.754;2024-02-14T06:08:26;5.05;;;3.80;;
20290;SDS011;10304;51.074;13.754;2024-02-14T06:10:53;4.25;;;3.30;;
20290;SDS011;10304;51.074;13.754;2024-02-14T06:13:31;10.65;;;5.20;;
20290;SDS011;10304;51.074;13.754;2024-02-14T06:16:01;13.88;;;5.68;;
20290;SDS011;10304;51.074;13.754;2024-02-14T06:18:34;8.63;;;4.65;;
20290;SDS011;10304;51.074;13.754;2024-02-14T06:21:10;8.57;;;4.70;;
20290;SDS011;10304;51.074;13.754;2024-02-14T06:23:49;8.35;;;4.30;;
20290;SDS011;10304;51.074;13.754;2024-02-14T06:26:20;7.60;;;3.65;;
20290;SDS011;10304;51.074;13.754;2024-02-14T06:28:55;9.48;;;4.45;;
20290;SDS011;10304;51.074;13.754;2024-02-14T06:31:35;6.35;;;3.78;;
20290;SDS011;10304;51.074;13.754;2024-02-14T06:34:07;6.03;;;3.95;;
20290;SDS011;10304;51.074;13.754;2024-02-14T06:36:39;9.10;;;4.28;;
20290;SDS011;10304;51.074;13.754;2024-02-14T06:39:20;9.70;;;4.97;;
20290;SDS011;10304;51.074;13.754;2024-02-14T06:42:03;35.92;;;17.20;;
20290;SDS011;10304;51.074;13.754;2024-02-14T06:44:43;25.08;;;11.98;;
20290;SDS011;10304;51.074;13.754;2024-02-14T06:47:19;14.50;;;7.05;;
20290;SDS011;10304;51.074;13.754;2024-02-14T06:49:49;14.23;;;7.13;;
20290;SDS011;10304;51.074;13.754;2024-02-14T06:52:20;11.75;;;6.00;;
20290;SDS011;10304;51.074;13.754;2024-02-14T06:54:47;9.95;;;4.63;;
20290;SDS011;10304;51.074;13.754;2024-02-14T06:57:14;8.15;;;4.22;;
20290;SDS011;10304;51.074;13.754;2024-02-14T06:59:42;7.63;;;4.35;;
20290;SDS011;10304;51.074;13.754;2024-02-14T07:02:09;6.95;;;4.30;;
20290;SDS011;10304;51.074;13.754;2024-02-14T07:04:39;8.30;;;3.90;;
20290;SDS011;10304;51.074;13.754;2024-02-14T07:07:07;6.97;;;4.40;;
20290;SDS011;10304;51.074;13.754;2024-02-14T07:09:35;8.25;;;4.60;;
20290;SDS011;10304;51.074;13.754;2024-02-14T07:12:04;23.85;;;12.00;;
20290;SDS011;10304;51.074;13.754;2024-02-14T07:14:32;13.35;;;8.23;;
20290;SDS011;10304;51.074;13.754;2024-02-14T07:16:59;15.60;;;8.25;;
20290;SDS011;10304;51.074;13.754;2024-02-14T07:19:27;12.55;;;6.00;;
20290;SDS011;10304;51.074;13.754;2024-02-14T07:21:54;8.02;;;5.85;;
20290;SDS011;10304;51.074;13.754;2024-02-14T07:24:22;8.98;;;5.88;;
20290;SDS011;10304;51.074;13.754;2024-02-14T07:26:49;11.43;;;6.28;;
20290;SDS011;10304;51.074;13.754;2024-02-14T07:29:16;9.63;;;5.47;;
20290;SDS011;10304;51.074;13.754;2024-02-14T07:31:44;11.45;;;5.38;;
20290;SDS011;10304;51.074;13.754;2024-02-14T07:34:12;10.82;;;5.53;;
20290;SDS011;10304;51.074;13.754;2024-02-14T07:36:40;10.75;;;6.07;;
20290;SDS011;10304;51.074;13.754;2024-02-14T07:39:13;7.72;;;4.80;;
20290;SDS011;10304;51.074;13.754;2024-02-14T07:41:40;8.25;;;4.68;;
20290;SDS011;10304;51.074;13.754;2024-02-14T07:44:08;7.25;;;4.15;;
20290;SDS011;10304;51.074;13.754;2024-02-14T07:46:35;9.25;;;4.50;;
20290;SDS011;10304;51.074;13.754;2024-02-14T07:49:03;8.45;;;4.30;;
20290;SDS011;10304;51.074;13.754;2024-02-14T07:51:31;9.20;;;4.63;;
20290;SDS011;10304;51.074;13.754;2024-02-14T07:54:04;9.65;;;4.13;;
20290;SDS011;10304;51.074;13.754;2024-02-14T07:56:33;8.73;;;4.20;;
20290;SDS011;10304;51.074;13.754;2024-02-14T07:59:00;7.45;;;3.80;;
20290;SDS011;10304;51.074;13.754;2024-02-14T08:01:30;8.65;;;3.80;;
20290;SDS011;10304;51.074;13.754;2024-02-14T08:03:59;7.13;;;3.70;;
20290;SDS011;10304;51.074;13.754;2024-02-14T08:06:26;6.07;;;3.30;;
20290;SDS011;10304;51.074;13.754;2024-02-14T08:08:54;5.10;;;2.83;;
20290;SDS011;10304;51.074;13.754;2024-02-14T08:11:25;6.63;;;3.35;;
20290;SDS011;10304;51.074;13.754;2024-02-14T08:13:52;4.97;;;3.25;;
20290;SDS011;10304;51.074;13.754;2024-02-14T08:16:20;6.30;;;3.25;;
20290;SDS011;10304;51.074;13.754;2024-02-14T08:18:47;4.97;;;3.00;;
20290;SDS011;10304;51.074;13.754;2024-02-14T08:21:16;7.13;;;3.33;;
20290;SDS011;10304;51.074;13.754;2024-02-14T08:23:44;5.97;;;3.30;;
20290;SDS011;10304;51.074;13.754;2024-02-14T08:26:22;5.93;;;2.88;;
20290;SDS011;10304;51.074;13.754;2024-02-14T08:28:51;9.38;;;2.80;;
20290;SDS011;10304;51.074;13.754;2024-02-14T08:31:19;5.60;;;3.10;;
20290;SDS011;10304;51.074;13.754;2024-02-14T08:33:47;8.23;;;3.05;;
20290;SDS011;10304;51.074;13.754;2024-02-14T08:36:15;6.47;;;3.00;;
20290;SDS011;10304;51.074;13.754;2024-02-14T08:38:46;5.25;;;2.92;;
20290;SDS011;10304;51.074;13.754;2024-02-14T08:41:14;5.40;;;3.10;;
20290;SDS011;10304;51.074;13.754;2024-02-14T08:43:42;9.48;;;3.08;;
20290;SDS011;10304;51.074;13.754;2024-02-14T08:46:13;4.72;;;3.00;;
20290;SDS011;10304;51.074;13.754;2024-02-14T08:48:44;7.82;;;3.22;;
20290;SDS011;10304;51.074;13.754;2024-02-14T08:51:16;5.53;;;2.90;;
20290;SDS011;10304;51.074;13.754;2024-02-14T08:53:47;7.22;;;3.33;;
20290;SDS011;10304;51.074;13.754;2024-02-14T08:56:15;6.15;;;3.47;;
20290;SDS011;10304;51.074;13.754;2024-02-14T08:58:42;5.18;;;2.85;;
20290;SDS011;10304;51.074;13.754;2024-02-14T09:01:11;7.15;;;3.50;;
20290;SDS011;10304;51.074;13.754;2024-02-14T09:03:42;9.13;;;3.25;;
20290;SDS011;10304;51.074;13.754;2024-02-14T09:06:16;8.90;;;3.00;;
20290;SDS011;10304;51.074;13.754;2024-02-14T09:08:45;5.63;;;2.75;;
20290;SDS011;10304;51.074;13.754;2024-02-14T09:11:13;7.18;;;2.95;;
20290;SDS011;10304;51.074;13.754;2024-02-14T09:13:41;7.18;;;2.95;;
20290;SDS011;10304;51.074;13.754;2024-02-14T09:16:09;6.85;;;3.53;;
20290;SDS011;10304;51.074;13.754;2024-02-14T09:18:41;7.30;;;3.15;;
20290;SDS011;10304;51.074;13.754;2024-02-14T09:21:09;4.80;;;2.55;;
20290;SDS011;10304;51.074;13.754;2024-02-14T09:23:36;5.78;;;3.10;;
20290;SDS011;10304;51.074;13.754;2024-02-14T09:26:06;6.97;;;3.63;;
20290;SDS011;10304;51.074;13.754;2024-02-14T09:28:33;6.65;;;3.10;;
20290;SDS011;10304;51.074;13.754;2024-02-14T09:31:01;5.97;;;2.60;;
20290;SDS011;10304;51.074;13.754;2024-02-14T09:33:30;6.25;;;3.33;;
20290;SDS011;10304;51.074;13.754;2024-02-14T09:35:57;5.97;;;2.50;;
20290;SDS011;10304;51.074;13.754;2024-02-14T09:38:24;7.05;;;3.28;;
20290;SDS011;10304;51.074;13.754;2024-02-14T09:40:53;6.53;;;3.10;;
20290;SDS011;10304;51.074;13.754;2024-02-14T09:45:54;9.63;;;3.08;;
20290;SDS011;10304;51.074;13.754;2024-02-14T09:48:21;6.82;;;3.65;;
20290;SDS011;10304;51.074;13.754;2024-02-14T09:50:49;7.28;;;3.63;;
20290;SDS011;10304;51.074;13.754;2024-02-14T09:53:19;6.28;;;3.10;;
20290;SDS011;10304;51.074;13.754;2024-02-14T09:55:47;8.07;;;3.70;;
20290;SDS011;10304;51.074;13.754;2024-02-14T09:58:17;5.60;;;3.03;;
20290;SDS011;10304;51.074;13.754;2024-02-14T10:00:44;5.95;;;3.08;;
20290;SDS011;10304;51.074;13.754;2024-02-14T10:03:11;5.13;;;2.78;;
20290;SDS011;10304;51.074;13.754;2024-02-14T10:05:42;8.68;;;3.35;;
20290;SDS011;10304;51.074;13.754;2024-02-14T10:08:09;5.55;;;2.80;;
20290;SDS011;10304;51.074;13.754;2024-02-14T10:10:37;6.13;;;2.50;;
20290;SDS011;10304;51.074;13.754;2024-02-14T10:13:05;6.07;;;2.95;;
20290;SDS011;10304;51.074;13.754;2024-02-14T10:15:33;4.43;;;2.63;;
20290;SDS011;10304;51.074;13.754;2024-02-14T10:18:00;5.78;;;2.92;;
20290;SDS011;10304;51.074;13.754;2024-02-14T10:20:30;6.75;;;3.50;;
20290;SDS011;10304;51.074;13.754;2024-02-14T10:23:01;6.60;;;3.28;;
20290;SDS011;10304;51.074;13.754;2024-02-14T10:25:34;7.38;;;3.50;;
20290;SDS011;10304;51.074;13.754;2024-02-14T10:28:04;4.40;;;2.83;;
20290;SDS011;10304;51.074;13.754;2024-02-14T10:30:35;6.88;;;3.15;;
20290;SDS011;10304;51.074;13.754;2024-02-14T10:33:04;6.90;;;3.50;;
20290;SDS011;10304;51.074;13.754;2024-02-14T10:35:49;6.65;;;2.92;;
20290;SDS011;10304;51.074;13.754;2024-02-14T10:38:19;5.82;;;3.70;;
20290;SDS011;10304;51.074;13.754;2024-02-14T10:40:47;6.88;;;3.80;;
20290;SDS011;10304;51.074;13.754;2024-02-14T10:43:17;5.38;;;3.30;;
20290;SDS011;10304;51.074;13.754;2024-02-14T10:45:44;5.60;;;3.60;;
20290;SDS011;10304;51.074;13.754;2024-02-14T10:48:11;8.05;;;3.40;;
20290;SDS011;10304;51.074;13.754;2024-02-14T10:50:42;8.50;;;3.47;;
20290;SDS011;10304;51.074;13.754;2024-02-14T10:53:14;7.18;;;3.75;;
20290;SDS011;10304;51.074;13.754;2024-02-14T10:55:43;8.65;;;3.92;;
20290;SDS011;10304;51.074;13.754;2024-02-14T10:58:17;7.28;;;4.03;;
20290;SDS011;10304;51.074;13.754;2024-02-14T11:00:49;5.38;;;3.70;;
20290;SDS011;10304;51.074;13.754;2024-02-14T11:03:16;9.05;;;3.60;;
20290;SDS011;10304;51.074;13.754;2024-02-14T11:05:48;5.53;;;3.42;;
20290;SDS011;10304;51.074;13.754;2024-02-14T11:08:19;13.23;;;3.53;;
20290;SDS011;10304;51.074;13.754;2024-02-14T11:10:53;8.93;;;3.65;;
20290;SDS011;10304;51.074;13.754;2024-02-14T11:13:26;9.18;;;4.05;;
20290;SDS011;10304;51.074;13.754;2024-02-14T11:15:54;4.95;;;2.28;;
20290;SDS011;10304;51.074;13.754;2024-02-14T11:18:24;7.60;;;3.10;;
20290;SDS011;10304;51.074;13.754;2024-02-14T11:20:52;8.18;;;3.35;;
20290;SDS011;10304;51.074;13.754;2024-02-14T11:23:23;4.00;;;2.10;;
20290;SDS011;10304;51.074;13.754;2024-02-14T11:26:00;4.10;;;2.40;;
20290;SDS011;10304;51.074;13.754;2024-02-14T11:28:30;7.13;;;2.67;;
20290;SDS011;10304;51.074;13.754;2024-02-14T11:31:08;8.93;;;2.72;;
20290;SDS011;10304;51.074;13.754;2024-02-14T11:33:50;4.13;;;1.98;;
20290;SDS011;10304;51.074;13.754;2024-02-14T11:36:33;5.45;;;2.10;;
20290;SDS011;10304;51.074;13.754;2024-02-14T11:39:03;3.40;;;1.70;;
20290;SDS011;10304;51.074;13.754;2024-02-14T11:41:34;4.40;;;1.85;;
20290;SDS011;10304;51.074;13.754;2024-02-14T11:44:02;4.05;;;2.03;;
20290;SDS011;10304;51.074;13.754;2024-02-14T11:46:38;3.85;;;1.58;;
20290;SDS011;10304;51.074;13.754;2024-02-14T11:49:05;4.53;;;1.70;;
20290;SDS011;10304;51.074;13.754;2024-02-14T11:51:33;5.45;;;1.73;;
20290;SDS011;10304;51.074;13.754;2024-02-14T11:54:02;3.30;;;1.50;;
20290;SDS011;10304;51.074;13.754;2024-02-14T11:56:35;5.88;;;1.60;;
20290;SDS011;10304;51.074;13.754;2024-02-14T11:59:07;1.73;;;1.10;;
20290;SDS011;10304;51.074;13.754;2024-02-14T12:01:36;4.03;;;1.48;;
20290;SDS011;10304;51.074;13.754;2024-02-14T12:04:04;2.45;;;1.20;;
20290;SDS011;10304;51.074;13.754;2024-02-14T12:06:36;2.00;;;1.20;;
20290;SDS011;10304;51.074;13.754;2024-02-14T12:09:08;3.53;;;1.35;;
20290;SDS011;10304;51.074;13.754;2024-02-14T12:11:39;3.05;;;1.10;;
20290;SDS011;10304;51.074;13.754;2024-02-14T12:14:10;3.03;;;1.13;;
20290;SDS011;10304;51.074;13.754;2024-02-14T12:16:38;3.80;;;1.23;;
20290;SDS011;10304;51.074;13.754;2024-02-14T12:19:14;2.60;;;1.20;;
20290;SDS011;10304;51.074;13.754;2024-02-14T12:21:43;1.95;;;1.20;;
20290;SDS011;10304;51.074;13.754;2024-02-14T12:24:15;2.85;;;1.30;;
20290;SDS011;10304;51.074;13.754;2024-02-14T12:26:42;1.33;;;0.88;;
20290;SDS011;10304;51.074;13.754;2024-02-14T12:29:11;4.15;;;1.35;;
20290;SDS011;10304;51.074;13.754;2024-02-14T12:31:41;3.30;;;1.00;;
20290;SDS011;10304;51.074;13.754;2024-02-14T12:34:14;3.92;;;1.08;;
20290;SDS011;10304;51.074;13.754;2024-02-14T12:36:41;2.28;;;0.80;;
20290;SDS011;10304;51.074;13.754;2024-02-14T12:39:09;2.40;;;1.20;;
20290;SDS011;10304;51.074;13.754;2024-02-14T12:41:39;3.55;;;0.88;;
20290;SDS011;10304;51.074;13.754;2024-02-14T12:44:07;1.70;;;1.10;;
20290;SDS011;10304;51.074;13.754;2024-02-14T12:46:34;2.83;;;1.10;;
20290;SDS011;10304;51.074;13.754;2024-02-14T12:49:04;2.78;;;0.88;;
20290;SDS011;10304;51.074;13.754;2024-02-14T12:51:33;3.00;;;0.90;;
20290;SDS011;10304;51.074;13.754;2024-02-14T12:54:02;1.77;;;0.80;;
20290;SDS011;10304;51.074;13.754;2024-02-14T12:56:30;1.67;;;0.90;;
20290;SDS011;10304;51.074;13.754;2024-02-14T12:58:57;2.80;;;0.90;;
20290;SDS011;10304;51.074;13.754;2024-02-14T13:01:26;3.10;;;1.00;;
20290;SDS011;10304;51.074;13.754;2024-02-14T13:03:53;1.25;;;0.70;;
20290;SDS011;10304;51.074;13.754;2024-02-14T13:06:20;2.95;;;0.95;;
20290;SDS011;10304;51.074;13.754;2024-02-14T13:08:47;2.92;;;1.00;;
20290;SDS011;10304;51.074;13.754;2024-02-14T13:11:14;3.60;;;1.35;;
20290;SDS011;10304;51.074;13.754;2024-02-14T13:13:44;2.05;;;1.00;;
20290;SDS011;10304;51.074;13.754;2024-02-14T13:16:13;2.88;;;1.08;;
20290;SDS011;10304;51.074;13.754;2024-02-14T13:18:40;1.48;;;0.90;;
20290;SDS011;10304;51.074;13.754;2024-02-14T13:21:15;2.17;;;0.98;;
20290;SDS011;10304;51.074;13.754;2024-02-14T13:23:43;3.63;;;1.13;;
20290;SDS011;10304;51.074;13.754;2024-02-14T13:26:10;2.80;;;0.95;;
20290;SDS011;10304;51.074;13.754;2024-02-14T13:28:37;2.35;;;1.10;;
20290;SDS011;10304;51.074;13.754;2024-02-14T13:31:07;2.28;;;1.13;;
20290;SDS011;10304;51.074;13.754;2024-02-14T13:33:34;2.42;;;1.00;;
20290;SDS011;10304;51.074;13.754;2024-02-14T13:36:03;2.88;;;1.17;;
20290;SDS011;10304;51.074;13.754;2024-02-14T13:38:31;1.58;;;0.80;;
20290;SDS011;10304;51.074;13.754;2024-02-14T13:40:58;4.00;;;1.33;;
20290;SDS011;10304;51.074;13.754;2024-02-14T13:43:25;4.15;;;1.27;;
20290;SDS011;10304;51.074;13.754;2024-02-14T13:45:52;2.08;;;1.00;;
20290;SDS011;10304;51.074;13.754;2024-02-14T13:48:20;2.28;;;1.10;;
20290;SDS011;10304;51.074;13.754;2024-02-14T13:50:47;2.13;;;1.08;;
20290;SDS011;10304;51.074;13.754;2024-02-14T13:53:15;4.88;;;1.50;;
20290;SDS011;10304;51.074;13.754;2024-02-14T13:55:43;3.78;;;1.60;;
20290;SDS011;10304;51.074;13.754;2024-02-14T13:58:10;3.90;;;1.52;;
20290;SDS011;10304;51.074;13.754;2024-02-14T14:00:43;2.00;;;1.20;;
20290;SDS011;10304;51.074;13.754;2024-02-14T14:03:10;3.70;;;1.70;;
20290;SDS011;10304;51.074;13.754;2024-02-14T14:05:38;5.43;;;1.63;;
20290;SDS011;10304;51.074;13.754;2024-02-14T14:08:05;2.95;;;1.63;;
20290;SDS011;10304;51.074;13.754;2024-02-14T14:10:32;4.00;;;1.40;;
20290;SDS011;10304;51.074;13.754;2024-02-14T14:12:59;2.47;;;1.10;;
20290;SDS011;10304;51.074;13.754;2024-02-14T14:15:26;5.47;;;1.63;;
20290;SDS011;10304;51.074;13.754;2024-02-14T14:17:57;3.20;;;1.27;;
20290;SDS011;10304;51.074;13.754;2024-02-14T14:20:27;3.60;;;1.35;;
20290;SDS011;10304;51.074;13.754;2024-02-14T14:22:54;3.10;;;1.33;;
20290;SDS011;10304;51.074;13.754;2024-02-14T14:25:22;3.83;;;1.30;;
20290;SDS011;10304;51.074;13.754;2024-02-14T14:27:52;2.85;;;1.38;;
20290;SDS011;10304;51.074;13.754;2024-02-14T14:30:25;3.47;;;2.03;;
20290;SDS011;10304;51.074;13.754;2024-02-14T14:33:02;3.58;;;1.27;;
20290;SDS011;10304;51.074;13.754;2024-02-14T14:35:33;3.05;;;1.35;;
20290;SDS011;10304;51.074;13.754;2024-02-14T14:38:00;3.15;;;1.30;;
20290;SDS011;10304;51.074;13.754;2024-02-14T14:40:27;2.60;;;1.20;;
20290;SDS011;10304;51.074;13.754;2024-02-14T14:42:55;3.67;;;1.50;;
20290;SDS011;10304;51.074;13.754;2024-02-14T14:45:21;1.90;;;1.20;;
20290;SDS011;10304;51.074;13.754;2024-02-14T14:47:49;1.98;;;1.10;;
20290;SDS011;10304;51.074;13.754;2024-02-14T14:50:16;2.17;;;1.05;;
20290;SDS011;10304;51.074;13.754;2024-02-14T14:52:44;2.45;;;1.60;;
20290;SDS011;10304;51.074;13.754;2024-02-14T14:55:12;1.67;;;0.90;;
20290;SDS011;10304;51.074;13.754;2024-02-14T14:57:39;4.38;;;1.50;;
20290;SDS011;10304;51.074;13.754;2024-02-14T15:00:10;2.78;;;0.90;;
20290;SDS011;10304;51.074;13.754;2024-02-14T15:02:41;3.00;;;1.38;;